createdAt,value
2023-06-02T00:00:22.491Z,62.86
2023-06-02T00:01:22.573Z,63.77
2023-06-02T00:02:22.838Z,65.41
2023-06-02T00:03:22.900Z,65.00
2023-06-02T00:04:23.004Z,64.60
2023-06-02T00:05:23.130Z,65.82
2023-06-02T00:06:26.899Z,65.66
2023-06-02T00:07:23.351Z,66.33
2023-06-02T00:08:23.454Z,66.18
2023-06-02T00:09:23.623Z,67.78
2023-06-02T00:10:23.720Z,69.29
2023-06-02T00:11:23.822Z,69.98
2023-06-02T00:12:23.978Z,69.69
2023-06-02T00:13:24.224Z,68.33
2023-06-02T00:14:24.233Z,66.65
2023-06-02T00:15:24.339Z,66.07
2023-06-02T00:16:24.541Z,66.60
2023-06-02T00:17:24.627Z,67.24
2023-06-02T00:18:24.727Z,69.06
2023-06-02T00:19:24.866Z,68.95
2023-06-02T00:20:25.011Z,68.27
2023-06-02T00:21:25.318Z,67.24
2023-06-02T00:22:25.264Z,66.02
2023-06-02T00:23:25.377Z,67.72
2023-06-02T00:24:25.478Z,68.39
2023-06-02T00:25:25.587Z,70.92
2023-06-02T00:26:25.687Z,72.08
2023-06-02T00:27:25.832Z,74.71
2023-06-02T00:28:25.929Z,74.57
2023-06-02T00:29:26.077Z,73.72
2023-06-02T00:30:26.186Z,75.38
2023-06-02T00:31:26.337Z,74.44
2023-06-02T00:32:26.533Z,76.26
2023-06-02T00:33:26.619Z,75.44
2023-06-02T00:34:26.749Z,76.26
2023-06-02T00:35:26.895Z,75.58
2023-06-02T00:36:27.033Z,74.11
2023-06-02T00:37:27.142Z,75.38
2023-06-02T00:38:27.246Z,76.82
2023-06-02T00:39:27.371Z,78.40
2023-06-02T00:40:27.517Z,78.84
2023-06-02T00:41:27.604Z,78.84
2023-06-02T00:42:27.797Z,77.96
2023-06-02T00:43:27.888Z,77.10
2023-06-02T00:44:27.973Z,74.97
2023-06-02T00:45:28.123Z,73.98
2023-06-02T00:46:28.281Z,74.84
2023-06-02T00:47:28.392Z,75.04
2023-06-02T00:48:28.502Z,74.18
2023-06-02T00:49:28.620Z,74.51
2023-06-02T00:50:28.713Z,73.98
2023-06-02T00:51:28.856Z,73.66
2023-06-02T00:52:28.987Z,74.05
2023-06-02T00:53:29.157Z,75.58
2023-06-02T00:54:29.251Z,77.18
2023-06-02T00:55:29.522Z,76.61
2023-06-02T00:56:29.483Z,76.06
2023-06-02T00:57:29.691Z,78.04
2023-06-02T00:58:29.805Z,78.84
2023-06-02T00:59:29.909Z,78.99
2023-06-02T01:00:30.050Z,79.66
2023-06-02T01:01:30.213Z,77.96
2023-06-02T01:02:30.314Z,80.42
2023-06-02T01:03:30.432Z,81.67
2023-06-02T01:04:30.527Z,82.96
2023-06-02T01:05:30.689Z,84.29
2023-06-02T01:06:30.780Z,86.29
2023-06-02T01:07:30.922Z,88.74
2023-06-02T01:08:31.085Z,87.72
2023-06-02T01:09:31.209Z,87.36
2023-06-02T01:10:31.331Z,87.54
2023-06-02T01:11:31.465Z,87.27
2023-06-02T01:12:31.584Z,89.98
2023-06-02T01:13:31.716Z,90.17
2023-06-02T01:14:31.783Z,90.07
2023-06-02T01:15:31.909Z,91.35
2023-06-02T01:16:32.093Z,89.98
2023-06-02T01:17:32.215Z,89.50
2023-06-02T01:18:32.375Z,88.19
2023-06-02T01:19:32.466Z,87.45
2023-06-02T01:20:32.614Z,87.18
2023-06-02T01:21:32.797Z,88.09
2023-06-02T01:22:32.864Z,87.54
2023-06-02T01:23:32.982Z,89.50
2023-06-02T01:24:33.089Z,89.40
2023-06-02T01:25:33.188Z,90.56
2023-06-02T01:26:33.293Z,91.25
2023-06-02T01:27:33.387Z,92.05
2023-06-02T01:28:33.600Z,92.76
2023-06-02T01:29:33.666Z,92.76
2023-06-02T01:30:33.851Z,91.85
2023-06-02T01:31:33.914Z,92.66
2023-06-02T01:32:34.136Z,92.15
2023-06-02T01:33:34.175Z,93.27
2023-06-02T01:34:34.301Z,90.76
2023-06-02T01:35:34.563Z,89.40
2023-06-02T01:36:34.597Z,89.21
2023-06-02T01:37:34.755Z,89.40
2023-06-02T01:38:34.896Z,87.09
2023-06-02T01:39:35.066Z,86.91
2023-06-02T01:40:35.189Z,88.37
2023-06-02T01:41:35.316Z,90.37
2023-06-02T01:42:35.410Z,91.25
2023-06-02T01:43:35.557Z,90.46
2023-06-02T01:44:35.768Z,92.15
2023-06-02T01:45:35.831Z,91.35
2023-06-02T01:46:36.061Z,89.98
2023-06-02T01:47:36.145Z,91.25
2023-06-02T01:48:36.257Z,91.95
2023-06-02T01:49:36.372Z,90.76
2023-06-02T01:50:36.514Z,89.50
2023-06-02T01:51:36.609Z,90.95
2023-06-02T01:52:36.710Z,89.98
2023-06-02T01:53:36.856Z,91.85
2023-06-02T01:54:37.001Z,94.11
2023-06-02T01:55:38.662Z,93.48
2023-06-02T01:56:37.288Z,93.82
2023-06-02T01:57:37.345Z,95.04
2023-06-02T01:58:37.465Z,93.77
2023-06-02T01:59:37.553Z,93.79
2023-06-02T02:00:37.668Z,95.39
2023-06-02T02:01:37.969Z,94.99
2023-06-02T02:02:38.007Z,95.36
2023-06-02T02:03:38.070Z,96.90
2023-06-02T02:04:38.150Z,97.29
2023-06-02T02:05:38.313Z,96.35
2023-06-02T02:06:38.474Z,95.91
2023-06-02T02:07:38.620Z,95.20
2023-06-02T02:08:38.656Z,94.45
2023-06-02T02:09:38.809Z,95.85
2023-06-02T02:10:38.908Z,97.97
2023-06-02T02:11:39.012Z,98.61
2023-06-02T02:12:39.173Z,96.40
2023-06-02T02:13:39.299Z,94.88
2023-06-02T02:14:39.447Z,94.88
2023-06-02T02:15:39.565Z,98.43
2023-06-02T02:16:39.756Z,102.08
2023-06-02T02:17:39.828Z,102.14
2023-06-02T02:18:39.899Z,101.59
2023-06-02T02:19:40.018Z,100.61
2023-06-02T02:20:40.138Z,99.19
2023-06-02T02:21:40.245Z,100.13
2023-06-02T02:22:40.372Z,100.79
2023-06-02T02:23:40.528Z,100.97
2023-06-02T02:24:40.585Z,101.46
2023-06-02T02:25:40.705Z,101.59
2023-06-02T02:26:40.812Z,98.20
2023-06-02T02:27:40.940Z,96.90
2023-06-02T02:28:41.136Z,95.39
2023-06-02T02:29:41.233Z,90.37
2023-06-02T02:30:41.391Z,92.25
2023-06-02T02:31:41.506Z,95.07
2023-06-02T02:32:41.648Z,94.93
2023-06-02T02:33:41.787Z,93.87
2023-06-02T02:34:41.821Z,94.77
2023-06-02T02:35:41.926Z,95.31
2023-06-02T02:36:42.073Z,97.58
2023-06-02T02:37:47.365Z,97.97
2023-06-02T02:38:43.393Z,97.46
2023-06-02T02:39:42.461Z,98.32
2023-06-02T02:40:42.638Z,99.13
2023-06-02T02:41:42.731Z,97.29
2023-06-02T02:42:42.888Z,95.80
2023-06-02T02:43:42.970Z,94.82
2023-06-02T02:44:43.160Z,95.31
2023-06-02T02:45:43.280Z,94.29
2023-06-02T02:46:43.396Z,94.88
2023-06-02T02:47:43.569Z,96.68
2023-06-02T02:48:43.670Z,97.29
2023-06-02T02:49:43.874Z,96.46
2023-06-02T02:50:47.523Z,94.93
2023-06-02T02:51:44.106Z,93.58
2023-06-02T02:52:44.255Z,94.21
2023-06-02T02:53:44.345Z,93.69
2023-06-02T02:54:44.522Z,92.45
2023-06-02T02:55:44.644Z,93.17
2023-06-02T02:56:44.832Z,93.90
2023-06-02T02:57:44.864Z,92.05
2023-06-02T02:58:44.991Z,94.21
2023-06-02T02:59:45.137Z,93.98
2023-06-02T03:00:45.293Z,98.20
2023-06-02T03:01:45.545Z,99.13
2023-06-02T03:02:45.573Z,99.48
2023-06-02T03:03:45.785Z,101.52
2023-06-02T03:04:46.325Z,103.65
2023-06-02T03:05:45.937Z,104.82
2023-06-02T03:06:46.117Z,107.15
2023-06-02T03:07:46.377Z,107.02
2023-06-02T03:08:46.371Z,107.08
2023-06-02T03:09:46.465Z,110.17
2023-06-02T03:10:46.623Z,114.37
2023-06-02T03:11:46.731Z,115.87
2023-06-02T03:12:46.872Z,117.73
2023-06-02T03:13:46.981Z,119.15
2023-06-02T03:14:47.104Z,118.40
2023-06-02T03:15:47.264Z,115.95
2023-06-02T03:16:47.421Z,116.19
2023-06-02T03:17:47.571Z,115.47
2023-06-02T03:18:47.600Z,120.00
2023-06-02T03:19:47.704Z,121.65
2023-06-02T03:20:47.801Z,121.39
2023-06-02T03:21:47.905Z,123.17
2023-06-02T03:22:48.046Z,125.19
2023-06-02T03:23:48.147Z,126.22
2023-06-02T03:24:48.244Z,126.03
2023-06-02T03:25:48.339Z,123.53
2023-06-02T03:26:48.448Z,118.65
2023-06-02T03:27:48.637Z,117.98
2023-06-02T03:28:48.728Z,116.27
2023-06-02T03:29:48.845Z,117.40
2023-06-02T03:30:48.988Z,119.15
2023-06-02T03:31:49.152Z,122.45
2023-06-02T03:32:49.333Z,119.58
2023-06-02T03:33:49.352Z,120.18
2023-06-02T03:34:49.449Z,120.78
2023-06-02T03:35:49.607Z,120.52
2023-06-02T03:36:49.727Z,119.49
2023-06-02T03:37:49.873Z,118.73
2023-06-02T03:38:49.979Z,121.48
2023-06-02T03:39:50.081Z,123.44
2023-06-02T03:40:50.207Z,124.17
2023-06-02T03:41:50.299Z,124.17
2023-06-02T03:42:50.460Z,125.37
2023-06-02T03:43:50.506Z,126.79
2023-06-02T03:44:50.618Z,125.09
2023-06-02T03:45:50.718Z,124.35
2023-06-02T03:46:51.073Z,124.08
2023-06-02T03:47:51.103Z,123.80
2023-06-02T03:48:51.140Z,122.10
2023-06-02T03:49:51.248Z,126.50
2023-06-02T03:50:51.346Z,129.93
2023-06-02T03:51:51.554Z,129.63
2023-06-02T03:52:51.576Z,128.63
2023-06-02T03:53:51.688Z,128.63
2023-06-02T03:54:51.912Z,127.56
2023-06-02T03:55:51.971Z,129.23
2023-06-02T03:56:52.097Z,130.13
2023-06-02T03:57:52.203Z,130.94
2023-06-02T03:58:52.316Z,133.96
2023-06-02T03:59:52.468Z,131.45
2023-06-02T04:00:52.600Z,132.59
2023-06-02T04:01:52.706Z,135.15
2023-06-02T04:02:52.857Z,137.47
2023-06-02T04:03:53.008Z,137.47
2023-06-02T04:04:53.195Z,134.71
2023-06-02T04:05:53.227Z,131.86
2023-06-02T04:06:53.333Z,135.15
2023-06-02T04:07:53.471Z,135.15
2023-06-02T04:08:53.589Z,135.26
2023-06-02T04:09:53.730Z,135.69
2023-06-02T04:10:53.816Z,131.86
2023-06-02T04:11:54.044Z,128.93
2023-06-02T04:12:54.099Z,129.93
2023-06-02T04:13:54.200Z,129.73
2023-06-02T04:14:54.331Z,131.97
2023-06-02T04:15:54.400Z,134.29
2023-06-02T04:16:54.647Z,136.69
2023-06-02T04:17:54.623Z,134.61
2023-06-02T04:18:54.750Z,134.82
2023-06-02T04:19:54.907Z,135.80
2023-06-02T04:20:54.924Z,138.03
2023-06-02T04:21:55.099Z,137.24
2023-06-02T04:22:55.156Z,136.24
2023-06-02T04:23:55.242Z,137.81
2023-06-02T04:24:55.440Z,137.02
2023-06-02T04:25:55.543Z,136.69
2023-06-02T04:26:55.652Z,137.36
2023-06-02T04:27:55.803Z,136.69
2023-06-02T04:28:55.914Z,142.72
2023-06-02T04:29:56.021Z,142.48
2023-06-02T04:30:56.179Z,142.12
2023-06-02T04:31:56.342Z,146.83
2023-06-02T04:32:56.493Z,149.98
2023-06-02T04:33:56.552Z,153.12
2023-06-02T04:34:56.665Z,153.68
2023-06-02T04:35:56.833Z,149.84
2023-06-02T04:36:56.990Z,146.71
2023-06-02T04:37:57.088Z,148.13
2023-06-02T04:38:57.178Z,151.60
2023-06-02T04:39:57.277Z,152.84
2023-06-02T04:40:57.404Z,154.24
2023-06-02T04:41:57.538Z,152.98
2023-06-02T04:42:57.594Z,152.29
2023-06-02T04:43:57.725Z,155.10
2023-06-02T04:44:57.852Z,154.81
2023-06-02T04:45:58.092Z,154.67
2023-06-02T04:46:58.194Z,156.54
2023-06-02T04:47:58.287Z,157.71
2023-06-02T04:48:58.320Z,159.81
2023-06-02T04:49:58.469Z,158.16
2023-06-02T04:50:58.557Z,156.25
2023-06-02T04:51:58.792Z,155.67
2023-06-02T04:52:58.816Z,155.96
2023-06-02T04:53:58.921Z,154.81
2023-06-02T04:54:59.019Z,153.12
2023-06-02T04:55:59.171Z,151.33
2023-06-02T04:56:59.292Z,149.58
2023-06-02T04:57:59.397Z,148.65
2023-06-02T04:58:59.566Z,143.82
2023-06-02T04:59:59.642Z,142.24
2023-06-02T05:00:59.804Z,144.44
2023-06-02T05:02:00.005Z,144.31
2023-06-02T05:03:00.090Z,143.33
2023-06-02T05:04:00.309Z,145.18
2023-06-02T05:05:00.292Z,148.26
2023-06-02T05:06:00.385Z,145.82
2023-06-02T05:07:00.488Z,141.04
2023-06-02T05:08:00.625Z,141.64
2023-06-02T05:09:00.725Z,147.22
2023-06-02T05:10:00.889Z,150.11
2023-06-02T05:11:00.944Z,154.95
2023-06-02T05:12:01.070Z,156.83
2023-06-02T05:13:01.136Z,155.38
2023-06-02T05:14:01.273Z,154.67
2023-06-02T05:15:01.420Z,155.82
2023-06-02T05:16:01.659Z,155.96
2023-06-02T05:17:01.564Z,154.53
2023-06-02T05:18:01.789Z,158.31
2023-06-02T05:19:01.824Z,163.54
2023-06-02T05:20:01.970Z,165.80
2023-06-02T05:21:02.074Z,168.63
2023-06-02T05:22:02.235Z,173.68
2023-06-02T05:23:02.342Z,174.95
2023-06-02T05:24:02.422Z,180.01
2023-06-02T05:25:02.579Z,181.56
2023-06-02T05:26:02.677Z,181.17
2023-06-02T05:27:02.774Z,179.62
2023-06-02T05:28:02.926Z,177.91
2023-06-02T05:29:03.089Z,179.62
2023-06-02T05:30:03.228Z,183.94
2023-06-02T05:31:04.174Z,184.15
2023-06-02T05:32:03.503Z,185.24
2023-06-02T05:33:03.659Z,184.35
2023-06-02T05:34:03.726Z,182.55
2023-06-02T05:35:03.845Z,185.76
2023-06-02T05:36:04.223Z,182.94
2023-06-02T05:37:04.060Z,185.35
2023-06-02T05:38:04.174Z,189.05
2023-06-02T05:39:04.291Z,188.62
2023-06-02T05:40:04.393Z,180.59
2023-06-02T05:41:04.560Z,178.48
2023-06-02T05:42:04.612Z,180.59
2023-06-02T05:43:04.755Z,174.77
2023-06-02T05:44:04.875Z,182.35
2023-06-02T05:45:04.964Z,184.96
2023-06-02T05:46:05.422Z,184.75
2023-06-02T05:47:05.231Z,177.35
2023-06-02T05:48:05.338Z,178.67
2023-06-02T05:49:05.414Z,186.39
2023-06-02T05:50:05.566Z,194.62
2023-06-02T05:51:05.660Z,194.05
2023-06-02T05:52:05.751Z,195.43
2023-06-02T05:53:05.863Z,202.61
2023-06-02T05:54:05.956Z,198.00
2023-06-02T05:55:06.132Z,193.14
2023-06-02T05:56:06.450Z,194.51
2023-06-02T05:57:06.374Z,191.02
2023-06-02T05:58:06.453Z,189.27
2023-06-02T05:59:06.608Z,186.71
2023-06-02T06:00:06.769Z,185.16
2023-06-02T06:01:06.830Z,191.46
2023-06-02T06:02:06.953Z,195.43
2023-06-02T06:03:07.253Z,194.39
2023-06-02T06:04:07.176Z,192.80
2023-06-02T06:05:07.316Z,191.69
2023-06-02T06:06:07.956Z,190.80
2023-06-02T06:07:07.514Z,189.92
2023-06-02T06:08:07.647Z,193.37
2023-06-02T06:09:07.744Z,200.04
2023-06-02T06:10:07.913Z,201.38
2023-06-02T06:11:08.065Z,202.74
2023-06-02T06:12:08.087Z,203.24
2023-06-02T06:13:08.306Z,205.38
2023-06-02T06:14:08.342Z,206.02
2023-06-02T06:15:08.467Z,213.34
2023-06-02T06:16:08.572Z,214.58
2023-06-02T06:17:08.704Z,207.57
2023-06-02T06:18:08.916Z,209.28
2023-06-02T06:19:08.998Z,206.15
2023-06-02T06:20:09.090Z,205.64
2023-06-02T06:21:09.244Z,202.99
2023-06-02T06:22:09.400Z,194.96
2023-06-02T06:23:09.486Z,198.00
2023-06-02T06:24:09.598Z,196.24
2023-06-02T06:25:09.707Z,192.58
2023-06-02T06:26:09.950Z,185.35
2023-06-02T06:27:11.232Z,187.66
2023-06-02T06:28:10.049Z,185.35
2023-06-02T06:29:10.185Z,191.02
2023-06-02T06:30:10.285Z,185.35
2023-06-02T06:31:10.383Z,187.02
2023-06-02T06:32:10.520Z,190.03
2023-06-02T06:33:10.622Z,194.62
2023-06-02T06:34:10.754Z,195.54
2023-06-02T06:35:10.922Z,196.35
2023-06-02T06:36:10.994Z,194.16
2023-06-02T06:37:11.106Z,187.98
2023-06-02T06:38:11.215Z,187.55
2023-06-02T06:39:11.356Z,186.39
2023-06-02T06:40:11.506Z,185.57
2023-06-02T06:41:11.623Z,184.15
2023-06-02T06:42:11.727Z,186.18
2023-06-02T06:43:23.604Z,185.55
2023-06-02T06:44:13.019Z,184.96
2023-06-02T06:45:12.059Z,185.36
2023-06-02T06:46:12.153Z,188.52
2023-06-02T06:47:12.382Z,185.45
2023-06-02T06:48:16.173Z,184.15
2023-06-02T06:49:12.541Z,176.23
2023-06-02T06:50:12.748Z,169.65
2023-06-02T06:51:12.821Z,166.46
2023-06-02T06:52:12.922Z,169.82
2023-06-02T06:53:13.006Z,171.91
2023-06-02T06:54:13.111Z,182.15
2023-06-02T06:55:13.255Z,183.34
2023-06-02T06:56:13.374Z,182.94
2023-06-02T06:57:13.489Z,181.76
2023-06-02T06:58:13.634Z,183.54
2023-06-02T06:59:13.724Z,184.96
2023-06-02T07:00:13.922Z,184.15
2023-06-02T07:01:14.013Z,186.18
2023-06-02T07:02:14.112Z,187.34
2023-06-02T07:03:14.356Z,188.52
2023-06-02T07:04:14.445Z,184.75
2023-06-02T07:05:14.426Z,179.05
2023-06-02T07:06:14.606Z,182.94
2023-06-02T07:07:14.707Z,190.80
2023-06-02T07:08:14.801Z,193.93
2023-06-02T07:09:14.950Z,193.71
2023-06-02T07:10:15.068Z,191.91
2023-06-02T07:11:15.193Z,185.97
2023-06-02T07:12:15.292Z,190.14
2023-06-02T07:13:15.409Z,188.30
2023-06-02T07:14:17.256Z,185.57
2023-06-02T07:15:16.145Z,181.95
2023-06-02T07:16:15.911Z,185.16
2023-06-02T07:17:15.881Z,188.19
2023-06-02T07:18:15.982Z,185.55
2023-06-02T07:19:16.097Z,176.23
2023-06-02T07:20:16.212Z,176.97
2023-06-02T07:21:16.360Z,179.62
2023-06-02T07:22:16.425Z,181.76
2023-06-02T07:23:16.530Z,180.20
2023-06-02T07:24:16.647Z,183.34
2023-06-02T07:25:16.745Z,184.75
2023-06-02T07:26:16.854Z,180.97
2023-06-02T07:27:16.993Z,186.50
2023-06-02T07:28:27.605Z,184.75
2023-06-02T07:29:18.223Z,185.16
2023-06-02T07:30:17.322Z,181.17
2023-06-02T07:31:17.574Z,177.53
2023-06-02T07:32:17.554Z,179.81
2023-06-02T07:33:17.668Z,180.39
2023-06-02T07:34:17.826Z,179.43
2023-06-02T07:35:17.920Z,176.97
2023-06-02T07:36:18.028Z,182.15
2023-06-02T07:37:18.145Z,189.27
2023-06-02T07:38:18.247Z,187.66
2023-06-02T07:39:18.364Z,190.03
2023-06-02T07:40:18.460Z,192.69
2023-06-02T07:41:18.930Z,199.43
2023-06-02T07:42:18.742Z,199.80
2023-06-02T07:43:18.919Z,202.74
2023-06-02T07:44:19.048Z,206.54
2023-06-02T07:45:19.134Z,201.62
2023-06-02T07:46:19.317Z,187.55
2023-06-02T07:47:19.394Z,189.60
2023-06-02T07:48:19.491Z,192.69
2023-06-02T07:49:19.667Z,194.96
2023-06-02T07:50:19.738Z,194.39
2023-06-02T07:51:19.885Z,191.91
2023-06-02T07:52:20.346Z,194.16
2023-06-02T07:53:20.094Z,204.24
2023-06-02T07:54:20.278Z,213.47
2023-06-02T07:55:20.862Z,215.70
2023-06-02T07:56:20.476Z,214.16
2023-06-02T07:57:20.596Z,214.86
2023-06-02T07:58:20.739Z,213.20
2023-06-02T07:59:20.875Z,205.38
2023-06-02T08:00:20.967Z,205.00
2023-06-02T08:01:21.130Z,209.02
2023-06-02T08:02:21.286Z,214.02
2023-06-02T08:03:21.420Z,211.15
2023-06-02T08:04:21.640Z,218.99
2023-06-02T08:05:21.660Z,221.18
2023-06-02T08:06:21.737Z,227.58
2023-06-02T08:07:21.893Z,233.37
2023-06-02T08:08:21.995Z,235.86
2023-06-02T08:09:22.153Z,226.80
2023-06-02T08:10:22.252Z,227.58
2023-06-02T08:11:22.424Z,213.75
2023-06-02T08:12:22.502Z,213.06
2023-06-02T08:13:22.594Z,217.40
2023-06-02T08:14:22.791Z,221.48
2023-06-02T08:15:22.869Z,223.13
2023-06-02T08:16:28.975Z,219.28
2023-06-02T08:17:24.143Z,217.26
2023-06-02T08:18:23.276Z,210.48
2023-06-02T08:19:23.413Z,202.37
2023-06-02T08:20:23.509Z,195.31
2023-06-02T08:21:23.688Z,196.94
2023-06-02T08:22:23.842Z,196.71
2023-06-02T08:23:23.949Z,194.16
2023-06-02T08:24:24.047Z,204.62
2023-06-02T08:25:24.151Z,201.62
2023-06-02T08:26:24.242Z,205.00
2023-06-02T08:27:24.393Z,202.24
2023-06-02T08:28:24.503Z,212.92
2023-06-02T08:29:24.901Z,210.62
2023-06-02T08:30:24.736Z,209.95
2023-06-02T08:31:24.983Z,205.00
2023-06-02T08:32:26.816Z,201.01
2023-06-02T08:33:25.134Z,202.61
2023-06-02T08:34:25.249Z,201.50
2023-06-02T08:35:25.498Z,192.36
2023-06-02T08:36:25.533Z,185.45
2023-06-02T08:37:25.661Z,182.55
2023-06-02T08:38:25.762Z,176.23
2023-06-02T08:39:25.801Z,175.68
2023-06-02T08:40:25.976Z,182.74
2023-06-02T08:41:26.082Z,179.24
2023-06-02T08:42:26.169Z,168.46
2023-06-02T08:43:26.335Z,165.80
2023-06-02T08:44:26.432Z,162.60
2023-06-02T08:45:26.563Z,160.42
2023-06-02T08:46:26.695Z,170.68
2023-06-02T08:47:26.899Z,171.21
2023-06-02T08:48:26.891Z,177.53
2023-06-02T08:49:27.005Z,185.57
2023-06-02T08:50:27.149Z,183.74
2023-06-02T08:51:27.246Z,188.95
2023-06-02T08:52:27.401Z,185.87
2023-06-02T08:53:27.512Z,185.35
2023-06-02T08:54:27.608Z,186.29
2023-06-02T08:55:27.740Z,180.78
2023-06-02T08:56:27.935Z,178.48
2023-06-02T08:57:27.973Z,180.59
2023-06-02T08:58:28.058Z,185.66
2023-06-02T08:59:28.213Z,180.59
2023-06-02T09:00:28.323Z,187.55
2023-06-02T09:01:28.467Z,185.97
2023-06-02T09:02:28.555Z,192.36
2023-06-02T09:03:45.430Z,194.05
2023-06-02T09:04:29.768Z,197.17
2023-06-02T09:05:28.884Z,190.69
2023-06-02T09:06:28.983Z,199.55
2023-06-02T09:07:29.090Z,200.52
2023-06-02T09:08:29.192Z,203.61
2023-06-02T09:09:29.334Z,206.67
2023-06-02T09:10:29.528Z,210.48
2023-06-02T09:11:29.610Z,209.55
2023-06-02T09:12:29.710Z,217.12
2023-06-02T09:13:29.823Z,221.93
2023-06-02T09:14:29.915Z,226.18
2023-06-02T09:15:30.083Z,222.98
2023-06-02T09:16:30.197Z,241.20
2023-06-02T09:17:30.325Z,253.79
2023-06-02T09:18:30.432Z,263.29
2023-06-02T09:19:30.548Z,261.00
2023-06-02T09:20:30.710Z,255.55
2023-06-02T09:21:30.863Z,252.62
2023-06-02T09:22:31.748Z,255.95
2023-06-02T09:23:33.404Z,260.18
2023-06-02T09:24:31.130Z,260.18
2023-06-02T09:25:31.389Z,263.92
2023-06-02T09:26:31.354Z,268.42
2023-06-02T09:27:31.462Z,271.06
2023-06-02T09:28:32.471Z,255.95
2023-06-02T09:29:31.658Z,251.28
2023-06-02T09:30:31.861Z,252.24
2023-06-02T09:31:31.947Z,256.75
2023-06-02T09:32:32.126Z,266.26
2023-06-02T09:33:32.127Z,272.63
2023-06-02T09:34:32.225Z,261.42
2023-06-02T09:35:32.336Z,262.04
2023-06-02T09:36:32.432Z,264.98
2023-06-02T09:37:32.608Z,260.39
2023-06-02T09:38:32.704Z,257.35
2023-06-02T09:39:32.848Z,248.07
2023-06-02T09:40:32.940Z,247.89
2023-06-02T09:41:33.088Z,257.14
2023-06-02T09:42:33.336Z,257.75
2023-06-02T09:43:33.389Z,273.53
2023-06-02T09:44:33.489Z,286.32
2023-06-02T09:45:33.650Z,290.35
2023-06-02T09:46:35.637Z,284.35
2023-06-02T09:47:34.082Z,282.41
2023-06-02T09:48:34.053Z,275.58
2023-06-02T09:49:34.101Z,274.44
2023-06-02T09:50:34.212Z,277.90
2023-06-02T09:51:34.318Z,287.07
2023-06-02T09:52:36.210Z,282.41
2023-06-02T09:53:34.556Z,267.98
2023-06-02T09:54:34.686Z,265.40
2023-06-02T09:55:34.784Z,274.21
2023-06-02T09:56:34.980Z,274.89
2023-06-02T09:57:35.008Z,295.27
2023-06-02T09:58:35.110Z,309.66
2023-06-02T09:59:35.220Z,309.66
2023-06-02T10:00:35.316Z,310.24
2023-06-02T10:01:35.545Z,315.57
2023-06-02T10:02:36.398Z,327.77
2023-06-02T10:03:35.808Z,322.97
2023-06-02T10:04:35.800Z,329.73
2023-06-02T10:05:35.912Z,325.83
2023-06-02T10:06:36.005Z,305.65
2023-06-02T10:07:36.161Z,314.37
2023-06-02T10:08:36.293Z,318.00
2023-06-02T10:09:36.388Z,313.77
2023-06-02T10:10:36.491Z,299.28
2023-06-02T10:11:36.592Z,297.13
2023-06-02T10:12:36.713Z,305.93
2023-06-02T10:13:36.816Z,297.67
2023-06-02T10:14:36.929Z,302.85
2023-06-02T10:15:37.142Z,309.95
2023-06-02T10:16:37.132Z,319.53
2023-06-02T10:17:37.314Z,316.78
2023-06-02T10:18:38.873Z,324.87
2023-06-02T10:19:37.489Z,330.72
2023-06-02T10:20:37.655Z,324.55
2023-06-02T10:21:37.758Z,314.07
2023-06-02T10:22:37.834Z,303.68
2023-06-02T10:23:38.109Z,302.02
2023-06-02T10:24:38.203Z,295.01
2023-06-02T10:25:38.201Z,303.40
2023-06-02T10:26:38.378Z,301.19
2023-06-02T10:27:38.444Z,299.83
2023-06-02T10:28:38.604Z,316.17
2023-06-02T10:29:38.765Z,298.74
2023-06-02T10:30:38.838Z,289.08
2023-06-02T10:31:38.999Z,289.33
2023-06-02T10:32:39.112Z,281.93
2023-06-02T10:33:39.171Z,270.84
2023-06-02T10:34:39.794Z,281.45
2023-06-02T10:35:39.430Z,288.82
2023-06-02T10:36:39.549Z,279.78
2023-06-02T10:37:39.671Z,289.84
2023-06-02T10:38:39.767Z,303.96
2023-06-02T10:39:39.862Z,325.51
2023-06-02T10:40:39.991Z,298.20
2023-06-02T10:41:40.082Z,278.36
2023-06-02T10:42:40.246Z,288.32
2023-06-02T10:43:40.361Z,299.01
2023-06-02T10:44:40.461Z,295.27
2023-06-02T10:45:40.601Z,274.21
2023-06-02T10:46:40.748Z,264.98
2023-06-02T10:47:40.846Z,283.13
2023-06-02T10:48:40.960Z,284.60
2023-06-02T10:49:50.395Z,301.74
2023-06-02T10:50:42.227Z,295.54
2023-06-02T10:51:41.340Z,265.40
2023-06-02T10:52:41.434Z,268.42
2023-06-02T10:53:41.594Z,279.07
2023-06-02T10:54:41.701Z,277.43
2023-06-02T10:55:41.821Z,263.92
2023-06-02T10:56:41.997Z,268.20
2023-06-02T10:57:42.067Z,279.31
2023-06-02T10:58:42.187Z,289.58
2023-06-02T10:59:42.282Z,294.48
2023-06-02T11:00:42.404Z,287.82
2023-06-02T11:01:42.595Z,280.02
2023-06-02T11:02:42.676Z,280.25
2023-06-02T11:03:42.771Z,275.35
2023-06-02T11:04:42.841Z,286.82
2023-06-02T11:05:42.964Z,292.66
2023-06-02T11:06:43.049Z,305.36
2023-06-02T11:07:43.175Z,297.67
2023-06-02T11:08:43.310Z,290.35
2023-06-02T11:09:43.404Z,305.08
2023-06-02T11:10:43.553Z,320.46
2023-06-02T11:11:43.671Z,329.73
2023-06-02T11:12:43.786Z,319.84
2023-06-02T11:13:43.891Z,319.53
2023-06-02T11:14:45.153Z,334.40
2023-06-02T11:15:44.129Z,321.40
2023-06-02T11:16:44.239Z,317.08
2023-06-02T11:17:44.456Z,307.07
2023-06-02T11:18:44.513Z,288.07
2023-06-02T11:19:44.596Z,272.18
2023-06-02T11:20:44.722Z,278.36
2023-06-02T11:21:44.853Z,276.73
2023-06-02T11:22:44.997Z,277.66
2023-06-02T11:23:45.034Z,269.95
2023-06-02T11:24:45.173Z,258.55
2023-06-02T11:25:45.325Z,270.17
2023-06-02T11:26:45.423Z,289.58
2023-06-02T11:27:45.568Z,272.85
2023-06-02T11:28:45.696Z,261.42
2023-06-02T11:29:45.795Z,262.87
2023-06-02T11:30:45.966Z,264.34
2023-06-02T11:31:46.002Z,264.98
2023-06-02T11:32:46.171Z,263.92
2023-06-02T11:33:46.275Z,280.25
2023-06-02T11:34:46.369Z,292.14
2023-06-02T11:35:46.511Z,309.66
2023-06-02T11:36:46.594Z,318.00
2023-06-02T11:37:46.700Z,328.75
2023-06-02T11:38:46.810Z,322.97
2023-06-02T11:39:46.911Z,309.95
2023-06-02T11:40:47.020Z,309.37
2023-06-02T11:41:47.122Z,314.67
2023-06-02T11:42:47.274Z,317.39
2023-06-02T11:43:47.464Z,325.19
2023-06-02T11:44:47.545Z,322.02
2023-06-02T11:45:47.711Z,306.50
2023-06-02T11:46:47.796Z,317.08
2023-06-02T11:47:47.963Z,323.60
2023-06-02T11:48:48.095Z,317.08
2023-06-02T11:49:48.129Z,302.85
2023-06-02T11:50:48.235Z,279.54
2023-06-02T11:51:48.346Z,286.32
2023-06-02T11:52:48.432Z,275.35
2023-06-02T11:53:48.601Z,275.12
2023-06-02T11:54:48.771Z,274.89
2023-06-02T11:55:48.961Z,259.77
2023-06-02T11:56:48.860Z,242.26
2023-06-02T11:57:49.021Z,257.14
2023-06-02T11:58:49.191Z,260.18
2023-06-02T11:59:49.280Z,267.77
2023-06-02T12:00:49.370Z,276.50
2023-06-02T12:01:49.534Z,276.73
2023-06-02T12:02:49.693Z,276.73
2023-06-02T12:03:49.839Z,270.62
2023-06-02T12:04:50.034Z,267.33
2023-06-02T12:05:49.991Z,268.42
2023-06-02T12:06:50.074Z,257.14
2023-06-02T12:07:50.224Z,259.16
2023-06-02T12:08:50.330Z,246.78
2023-06-02T12:09:50.470Z,239.10
2023-06-02T12:10:50.579Z,245.86
2023-06-02T12:11:50.675Z,239.62
2023-06-02T12:12:50.809Z,231.24
2023-06-02T12:13:51.879Z,244.59
2023-06-02T12:14:51.078Z,256.55
2023-06-02T12:15:51.186Z,261.42
2023-06-02T12:16:51.376Z,255.95
2023-06-02T12:17:51.436Z,251.09
2023-06-02T12:18:51.535Z,247.70
2023-06-02T12:19:51.630Z,257.55
2023-06-02T12:20:51.777Z,264.34
2023-06-02T12:21:51.885Z,261.62
2023-06-02T12:22:52.026Z,264.55
2023-06-02T12:23:52.137Z,266.26
2023-06-02T12:24:52.274Z,265.19
2023-06-02T12:25:52.422Z,267.98
2023-06-02T12:26:52.550Z,279.31
2023-06-02T12:27:52.646Z,292.66
2023-06-02T12:28:52.798Z,299.01
2023-06-02T12:29:52.906Z,302.02
2023-06-02T12:30:53.086Z,299.55
2023-06-02T12:31:53.114Z,293.44
2023-06-02T12:32:53.249Z,294.75
2023-06-02T12:33:53.370Z,287.82
2023-06-02T12:34:53.480Z,265.62